Toronto, Canada
Current Conditions -  °F | °C
As of 3:00 AM on Sunday 21 Dec 2014 (Local Time) from CYYZ Reporting Station
Overcast Overcast  
Wind Chill: 28°   Ceiling: 14000
Heat Index: 28°   Visibility: 15mi
Dew Point: 21°   Wind: 2mph
Humidity: 74%   Direction: NA
Pressure: 30.28"   Gusts: NA
Location:  43.65°N, 79.39°W
Report Text: CYYZ 210800Z VRB02KT 15SM SCT075 OVC140 M02/M06 A3028 RMK AC4AC4 SLP262
Loading
Personal Weather Stations






























Interactive Weather Map New forecast layout! Learn more

10-Day Weather Forecast

Advertisements
Track Severe Weather on mobile